sensor_id;sensor_type;location;lat;lon;timestamp;P1;durP1;ratioP1;P2;durP2;ratioP2
26588;SDS011;14235;48.532;8.722;2022-10-18T00:01:00;9.15;;;4.03;;
26588;SDS011;14235;48.532;8.722;2022-10-18T00:03:25;7.00;;;4.00;;
26588;SDS011;14235;48.532;8.722;2022-10-18T00:05:51;10.63;;;3.92;;
26588;SDS011;14235;48.532;8.722;2022-10-18T00:08:17;7.03;;;3.72;;
26588;SDS011;14235;48.532;8.722;2022-10-18T00:10:43;6.20;;;3.53;;
26588;SDS011;14235;48.532;8.722;2022-10-18T00:13:10;3.72;;;3.30;;
26588;SDS011;14235;48.532;8.722;2022-10-18T00:15:36;9.57;;;4.00;;
26588;SDS011;14235;48.532;8.722;2022-10-18T00:18:01;7.60;;;3.75;;
26588;SDS011;14235;48.532;8.722;2022-10-18T00:20:27;6.68;;;3.95;;
26588;SDS011;14235;48.532;8.722;2022-10-18T00:22:53;5.35;;;3.70;;
26588;SDS011;14235;48.532;8.722;2022-10-18T00:25:18;5.47;;;3.45;;
26588;SDS011;14235;48.532;8.722;2022-10-18T00:27:44;5.85;;;3.90;;
26588;SDS011;14235;48.532;8.722;2022-10-18T00:30:10;5.57;;;3.55;;
26588;SDS011;14235;48.532;8.722;2022-10-18T00:32:39;9.70;;;3.83;;
26588;SDS011;14235;48.532;8.722;2022-10-18T00:35:06;10.82;;;3.78;;
26588;SDS011;14235;48.532;8.722;2022-10-18T00:37:33;7.57;;;3.88;;
26588;SDS011;14235;48.532;8.722;2022-10-18T00:39:59;5.30;;;3.88;;
26588;SDS011;14235;48.532;8.722;2022-10-18T00:42:32;7.18;;;3.60;;
26588;SDS011;14235;48.532;8.722;2022-10-18T00:45:11;4.88;;;3.40;;
26588;SDS011;14235;48.532;8.722;2022-10-18T00:47:41;3.75;;;3.33;;
26588;SDS011;14235;48.532;8.722;2022-10-18T00:50:09;9.30;;;3.58;;
26588;SDS011;14235;48.532;8.722;2022-10-18T00:52:36;4.75;;;3.75;;
26588;SDS011;14235;48.532;8.722;2022-10-18T00:55:08;6.88;;;3.75;;
26588;SDS011;14235;48.532;8.722;2022-10-18T00:57:34;5.43;;;3.75;;
26588;SDS011;14235;48.532;8.722;2022-10-18T01:00:02;3.95;;;3.55;;
26588;SDS011;14235;48.532;8.722;2022-10-18T01:02:33;4.07;;;3.67;;
26588;SDS011;14235;48.532;8.722;2022-10-18T01:05:00;5.90;;;3.42;;
26588;SDS011;14235;48.532;8.722;2022-10-18T01:07:29;4.95;;;3.85;;
26588;SDS011;14235;48.532;8.722;2022-10-18T01:10:06;4.20;;;3.47;;
26588;SDS011;14235;48.532;8.722;2022-10-18T01:15:42;6.68;;;3.70;;
26588;SDS011;14235;48.532;8.722;2022-10-18T01:18:36;7.30;;;3.63;;
26588;SDS011;14235;48.532;8.722;2022-10-18T01:21:09;6.75;;;3.42;;
26588;SDS011;14235;48.532;8.722;2022-10-18T01:29:52;3.88;;;3.42;;
26588;SDS011;14235;48.532;8.722;2022-10-18T01:32:40;9.25;;;3.58;;
26588;SDS011;14235;48.532;8.722;2022-10-18T01:35:13;5.25;;;3.53;;
26588;SDS011;14235;48.532;8.722;2022-10-18T01:37:44;4.70;;;3.80;;
26588;SDS011;14235;48.532;8.722;2022-10-18T01:40:13;6.38;;;3.55;;
26588;SDS011;14235;48.532;8.722;2022-10-18T01:42:43;5.63;;;3.38;;
26588;SDS011;14235;48.532;8.722;2022-10-18T01:45:11;8.93;;;3.70;;
26588;SDS011;14235;48.532;8.722;2022-10-18T01:47:39;6.65;;;4.13;;
26588;SDS011;14235;48.532;8.722;2022-10-18T01:50:06;6.18;;;3.55;;
26588;SDS011;14235;48.532;8.722;2022-10-18T01:52:33;4.50;;;3.45;;
26588;SDS011;14235;48.532;8.722;2022-10-18T01:54:58;5.18;;;3.78;;
26588;SDS011;14235;48.532;8.722;2022-10-18T01:57:43;4.88;;;3.63;;
26588;SDS011;14235;48.532;8.722;2022-10-18T02:00:22;7.07;;;3.50;;
26588;SDS011;14235;48.532;8.722;2022-10-18T02:03:05;3.65;;;3.35;;
26588;SDS011;14235;48.532;8.722;2022-10-18T02:05:50;5.35;;;3.40;;
26588;SDS011;14235;48.532;8.722;2022-10-18T02:08:37;4.75;;;3.28;;
26588;SDS011;14235;48.532;8.722;2022-10-18T02:11:23;6.40;;;3.33;;
26588;SDS011;14235;48.532;8.722;2022-10-18T02:13:55;6.93;;;3.58;;
26588;SDS011;14235;48.532;8.722;2022-10-18T02:16:28;8.65;;;3.30;;
26588;SDS011;14235;48.532;8.722;2022-10-18T02:19:01;5.57;;;3.38;;
26588;SDS011;14235;48.532;8.722;2022-10-18T02:21:34;5.63;;;3.83;;
26588;SDS011;14235;48.532;8.722;2022-10-18T02:24:04;5.25;;;3.50;;
26588;SDS011;14235;48.532;8.722;2022-10-18T02:26:32;5.85;;;3.55;;
26588;SDS011;14235;48.532;8.722;2022-10-18T02:28:57;9.18;;;3.90;;
26588;SDS011;14235;48.532;8.722;2022-10-18T02:31:24;5.40;;;3.40;;
26588;SDS011;14235;48.532;8.722;2022-10-18T02:34:01;7.90;;;3.38;;
26588;SDS011;14235;48.532;8.722;2022-10-18T02:36:44;3.70;;;3.40;;
26588;SDS011;14235;48.532;8.722;2022-10-18T02:39:15;5.70;;;3.30;;
26588;SDS011;14235;48.532;8.722;2022-10-18T02:41:43;5.25;;;3.35;;
26588;SDS011;14235;48.532;8.722;2022-10-18T02:44:09;4.72;;;3.30;;
26588;SDS011;14235;48.532;8.722;2022-10-18T02:46:35;5.78;;;3.50;;
26588;SDS011;14235;48.532;8.722;2022-10-18T02:49:01;7.15;;;3.22;;
26588;SDS011;14235;48.532;8.722;2022-10-18T02:51:26;7.82;;;3.55;;
26588;SDS011;14235;48.532;8.722;2022-10-18T02:53:52;5.68;;;3.40;;
26588;SDS011;14235;48.532;8.722;2022-10-18T02:56:18;6.45;;;3.63;;
26588;SDS011;14235;48.532;8.722;2022-10-18T02:58:43;13.85;;;3.85;;
26588;SDS011;14235;48.532;8.722;2022-10-18T03:01:09;5.88;;;4.03;;
26588;SDS011;14235;48.532;8.722;2022-10-18T03:03:34;4.68;;;3.60;;
26588;SDS011;14235;48.532;8.722;2022-10-18T03:06:00;5.00;;;3.42;;
26588;SDS011;14235;48.532;8.722;2022-10-18T03:08:26;7.32;;;3.50;;
26588;SDS011;14235;48.532;8.722;2022-10-18T03:10:51;8.27;;;3.47;;
26588;SDS011;14235;48.532;8.722;2022-10-18T03:13:17;6.15;;;3.50;;
26588;SDS011;14235;48.532;8.722;2022-10-18T03:15:43;6.82;;;3.28;;
26588;SDS011;14235;48.532;8.722;2022-10-18T03:18:08;8.07;;;3.97;;
26588;SDS011;14235;48.532;8.722;2022-10-18T03:20:34;6.07;;;3.53;;
26588;SDS011;14235;48.532;8.722;2022-10-18T03:22:59;4.18;;;3.17;;
26588;SDS011;14235;48.532;8.722;2022-10-18T03:25:25;7.90;;;3.50;;
26588;SDS011;14235;48.532;8.722;2022-10-18T03:27:50;4.88;;;3.75;;
26588;SDS011;14235;48.532;8.722;2022-10-18T03:30:16;5.60;;;3.47;;
26588;SDS011;14235;48.532;8.722;2022-10-18T03:32:42;4.22;;;3.30;;
26588;SDS011;14235;48.532;8.722;2022-10-18T03:35:08;6.00;;;3.20;;
26588;SDS011;14235;48.532;8.722;2022-10-18T03:37:34;8.02;;;3.42;;
26588;SDS011;14235;48.532;8.722;2022-10-18T03:40:00;3.42;;;3.13;;
26588;SDS011;14235;48.532;8.722;2022-10-18T03:42:26;9.68;;;3.78;;
26588;SDS011;14235;48.532;8.722;2022-10-18T03:44:52;3.78;;;3.20;;
26588;SDS011;14235;48.532;8.722;2022-10-18T03:47:17;3.60;;;3.25;;
26588;SDS011;14235;48.532;8.722;2022-10-18T03:49:43;3.80;;;3.30;;
26588;SDS011;14235;48.532;8.722;2022-10-18T03:52:08;5.55;;;3.42;;
26588;SDS011;14235;48.532;8.722;2022-10-18T03:54:34;6.57;;;3.78;;
26588;SDS011;14235;48.532;8.722;2022-10-18T03:57:00;5.03;;;3.13;;
26588;SDS011;14235;48.532;8.722;2022-10-18T03:59:25;6.88;;;3.40;;
26588;SDS011;14235;48.532;8.722;2022-10-18T04:01:51;3.72;;;3.15;;
26588;SDS011;14235;48.532;8.722;2022-10-18T04:04:17;3.40;;;3.10;;
26588;SDS011;14235;48.532;8.722;2022-10-18T04:06:42;5.25;;;3.53;;
26588;SDS011;14235;48.532;8.722;2022-10-18T04:09:08;5.15;;;3.00;;
26588;SDS011;14235;48.532;8.722;2022-10-18T04:11:34;3.58;;;3.03;;
26588;SDS011;14235;48.532;8.722;2022-10-18T04:14:00;6.53;;;3.20;;
26588;SDS011;14235;48.532;8.722;2022-10-18T04:16:25;4.20;;;3.35;;
26588;SDS011;14235;48.532;8.722;2022-10-18T04:18:51;6.63;;;3.50;;
26588;SDS011;14235;48.532;8.722;2022-10-18T04:21:16;6.10;;;3.20;;
26588;SDS011;14235;48.532;8.722;2022-10-18T04:23:42;4.90;;;3.35;;
26588;SDS011;14235;48.532;8.722;2022-10-18T04:26:07;7.97;;;4.10;;
26588;SDS011;14235;48.532;8.722;2022-10-18T04:28:33;3.35;;;3.05;;
26588;SDS011;14235;48.532;8.722;2022-10-18T04:30:59;4.72;;;3.42;;
26588;SDS011;14235;48.532;8.722;2022-10-18T04:33:25;6.03;;;3.15;;
26588;SDS011;14235;48.532;8.722;2022-10-18T04:35:51;5.80;;;3.13;;
26588;SDS011;14235;48.532;8.722;2022-10-18T04:38:17;6.25;;;3.42;;
26588;SDS011;14235;48.532;8.722;2022-10-18T04:40:44;7.32;;;3.33;;
26588;SDS011;14235;48.532;8.722;2022-10-18T04:43:09;5.22;;;3.40;;
26588;SDS011;14235;48.532;8.722;2022-10-18T04:45:35;4.32;;;3.50;;
26588;SDS011;14235;48.532;8.722;2022-10-18T04:48:01;9.68;;;3.58;;
26588;SDS011;14235;48.532;8.722;2022-10-18T04:50:27;6.18;;;3.53;;
26588;SDS011;14235;48.532;8.722;2022-10-18T04:52:52;4.68;;;3.63;;
26588;SDS011;14235;48.532;8.722;2022-10-18T04:55:18;3.55;;;3.25;;
26588;SDS011;14235;48.532;8.722;2022-10-18T04:57:44;5.25;;;3.42;;
26588;SDS011;14235;48.532;8.722;2022-10-18T05:00:10;7.50;;;3.95;;
26588;SDS011;14235;48.532;8.722;2022-10-18T05:02:36;6.13;;;3.30;;
26588;SDS011;14235;48.532;8.722;2022-10-18T05:05:02;5.88;;;3.65;;
26588;SDS011;14235;48.532;8.722;2022-10-18T05:07:28;5.32;;;3.53;;
26588;SDS011;14235;48.532;8.722;2022-10-18T05:09:53;6.68;;;3.58;;
26588;SDS011;14235;48.532;8.722;2022-10-18T05:12:19;5.40;;;3.53;;
26588;SDS011;14235;48.532;8.722;2022-10-18T05:14:46;6.35;;;3.60;;
26588;SDS011;14235;48.532;8.722;2022-10-18T05:17:12;5.10;;;3.50;;
26588;SDS011;14235;48.532;8.722;2022-10-18T05:19:38;8.20;;;3.60;;
26588;SDS011;14235;48.532;8.722;2022-10-18T05:22:03;6.63;;;3.78;;
26588;SDS011;14235;48.532;8.722;2022-10-18T05:24:29;4.60;;;3.33;;
26588;SDS011;14235;48.532;8.722;2022-10-18T05:26:55;6.82;;;3.85;;
26588;SDS011;14235;48.532;8.722;2022-10-18T05:29:21;4.32;;;3.70;;
26588;SDS011;14235;48.532;8.722;2022-10-18T05:31:47;5.68;;;3.80;;
26588;SDS011;14235;48.532;8.722;2022-10-18T05:34:14;3.78;;;3.22;;
26588;SDS011;14235;48.532;8.722;2022-10-18T05:36:40;7.68;;;4.05;;
26588;SDS011;14235;48.532;8.722;2022-10-18T05:39:05;7.45;;;3.80;;
26588;SDS011;14235;48.532;8.722;2022-10-18T05:41:31;4.03;;;3.65;;
26588;SDS011;14235;48.532;8.722;2022-10-18T05:43:57;5.43;;;3.78;;
26588;SDS011;14235;48.532;8.722;2022-10-18T05:46:23;5.93;;;3.78;;
26588;SDS011;14235;48.532;8.722;2022-10-18T05:48:49;7.90;;;3.95;;
26588;SDS011;14235;48.532;8.722;2022-10-18T05:51:18;5.35;;;3.92;;
26588;SDS011;14235;48.532;8.722;2022-10-18T05:53:44;4.82;;;4.07;;
26588;SDS011;14235;48.532;8.722;2022-10-18T05:56:09;4.70;;;4.00;;
26588;SDS011;14235;48.532;8.722;2022-10-18T05:58:36;4.68;;;4.05;;
26588;SDS011;14235;48.532;8.722;2022-10-18T06:01:02;5.28;;;4.00;;
26588;SDS011;14235;48.532;8.722;2022-10-18T06:03:29;5.15;;;3.90;;
26588;SDS011;14235;48.532;8.722;2022-10-18T06:05:59;7.03;;;4.25;;
26588;SDS011;14235;48.532;8.722;2022-10-18T06:08:29;6.40;;;4.00;;
26588;SDS011;14235;48.532;8.722;2022-10-18T06:10:55;6.50;;;4.50;;
26588;SDS011;14235;48.532;8.722;2022-10-18T06:13:21;6.78;;;4.10;;
26588;SDS011;14235;48.532;8.722;2022-10-18T06:15:47;7.65;;;4.00;;
26588;SDS011;14235;48.532;8.722;2022-10-18T06:18:12;5.55;;;3.80;;
26588;SDS011;14235;48.532;8.722;2022-10-18T06:20:38;6.40;;;3.88;;
26588;SDS011;14235;48.532;8.722;2022-10-18T06:23:03;6.50;;;4.22;;
26588;SDS011;14235;48.532;8.722;2022-10-18T06:25:29;5.40;;;4.38;;
26588;SDS011;14235;48.532;8.722;2022-10-18T06:27:54;7.03;;;4.78;;
26588;SDS011;14235;48.532;8.722;2022-10-18T06:30:20;12.32;;;4.95;;
26588;SDS011;14235;48.532;8.722;2022-10-18T06:32:45;5.97;;;4.05;;
26588;SDS011;14235;48.532;8.722;2022-10-18T06:35:11;6.72;;;4.72;;
26588;SDS011;14235;48.532;8.722;2022-10-18T06:37:37;7.88;;;4.38;;
26588;SDS011;14235;48.532;8.722;2022-10-18T06:40:03;4.85;;;4.13;;
26588;SDS011;14235;48.532;8.722;2022-10-18T06:42:29;6.45;;;4.45;;
26588;SDS011;14235;48.532;8.722;2022-10-18T06:44:55;7.68;;;4.15;;
26588;SDS011;14235;48.532;8.722;2022-10-18T06:47:21;6.35;;;4.35;;
26588;SDS011;14235;48.532;8.722;2022-10-18T06:49:47;6.68;;;4.10;;
26588;SDS011;14235;48.532;8.722;2022-10-18T06:52:12;6.05;;;4.20;;
26588;SDS011;14235;48.532;8.722;2022-10-18T06:54:40;8.85;;;3.90;;
26588;SDS011;14235;48.532;8.722;2022-10-18T06:57:06;5.35;;;4.15;;
26588;SDS011;14235;48.532;8.722;2022-10-18T06:59:31;4.90;;;3.65;;
26588;SDS011;14235;48.532;8.722;2022-10-18T07:01:57;7.97;;;3.80;;
26588;SDS011;14235;48.532;8.722;2022-10-18T07:04:22;6.78;;;3.90;;
26588;SDS011;14235;48.532;8.722;2022-10-18T07:06:48;7.55;;;3.60;;
26588;SDS011;14235;48.532;8.722;2022-10-18T07:09:13;10.32;;;4.10;;
26588;SDS011;14235;48.532;8.722;2022-10-18T07:11:39;6.35;;;3.65;;
26588;SDS011;14235;48.532;8.722;2022-10-18T07:14:05;7.38;;;3.50;;
26588;SDS011;14235;48.532;8.722;2022-10-18T07:16:31;5.05;;;3.83;;
26588;SDS011;14235;48.532;8.722;2022-10-18T07:18:57;5.25;;;3.42;;
26588;SDS011;14235;48.532;8.722;2022-10-18T07:21:24;7.95;;;4.72;;
26588;SDS011;14235;48.532;8.722;2022-10-18T07:23:50;7.65;;;4.47;;
26588;SDS011;14235;48.532;8.722;2022-10-18T07:28:48;7.47;;;4.13;;
26588;SDS011;14235;48.532;8.722;2022-10-18T07:31:18;8.25;;;4.70;;
26588;SDS011;14235;48.532;8.722;2022-10-18T07:33:43;11.48;;;4.70;;
26588;SDS011;14235;48.532;8.722;2022-10-18T07:36:09;7.18;;;4.50;;
26588;SDS011;14235;48.532;8.722;2022-10-18T07:38:36;11.80;;;4.85;;
26588;SDS011;14235;48.532;8.722;2022-10-18T07:41:02;6.40;;;4.70;;
26588;SDS011;14235;48.532;8.722;2022-10-18T07:43:30;7.90;;;4.63;;
26588;SDS011;14235;48.532;8.722;2022-10-18T07:45:57;7.45;;;4.40;;
26588;SDS011;14235;48.532;8.722;2022-10-18T07:48:24;6.05;;;4.63;;
26588;SDS011;14235;48.532;8.722;2022-10-18T07:50:51;5.97;;;4.47;;
26588;SDS011;14235;48.532;8.722;2022-10-18T07:53:17;8.50;;;4.10;;
26588;SDS011;14235;48.532;8.722;2022-10-18T07:55:42;14.10;;;4.70;;
26588;SDS011;14235;48.532;8.722;2022-10-18T07:58:08;7.32;;;4.15;;
26588;SDS011;14235;48.532;8.722;2022-10-18T08:00:37;6.63;;;4.55;;
26588;SDS011;14235;48.532;8.722;2022-10-18T08:03:04;6.97;;;4.40;;
26588;SDS011;14235;48.532;8.722;2022-10-18T08:05:30;7.80;;;4.35;;
26588;SDS011;14235;48.532;8.722;2022-10-18T08:07:55;8.45;;;4.25;;
26588;SDS011;14235;48.532;8.722;2022-10-18T08:10:21;8.20;;;4.57;;
26588;SDS011;14235;48.532;8.722;2022-10-18T08:12:48;10.50;;;4.35;;
26588;SDS011;14235;48.532;8.722;2022-10-18T08:15:14;13.18;;;4.43;;
26588;SDS011;14235;48.532;8.722;2022-10-18T08:17:40;8.02;;;4.93;;
26588;SDS011;14235;48.532;8.722;2022-10-18T08:20:07;11.07;;;4.85;;
26588;SDS011;14235;48.532;8.722;2022-10-18T08:22:33;7.80;;;4.30;;
26588;SDS011;14235;48.532;8.722;2022-10-18T08:24:59;6.35;;;4.00;;
26588;SDS011;14235;48.532;8.722;2022-10-18T08:27:24;10.35;;;4.97;;
26588;SDS011;14235;48.532;8.722;2022-10-18T08:29:50;5.28;;;4.30;;
26588;SDS011;14235;48.532;8.722;2022-10-18T08:32:16;9.13;;;4.47;;
26588;SDS011;14235;48.532;8.722;2022-10-18T08:34:42;6.03;;;4.32;;
26588;SDS011;14235;48.532;8.722;2022-10-18T08:37:07;8.40;;;4.22;;
26588;SDS011;14235;48.532;8.722;2022-10-18T08:39:33;6.65;;;4.18;;
26588;SDS011;14235;48.532;8.722;2022-10-18T08:44:50;6.45;;;4.32;;
26588;SDS011;14235;48.532;8.722;2022-10-18T08:47:17;6.13;;;4.38;;
26588;SDS011;14235;48.532;8.722;2022-10-18T08:49:59;5.60;;;4.10;;
26588;SDS011;14235;48.532;8.722;2022-10-18T08:55:04;7.75;;;5.05;;
26588;SDS011;14235;48.532;8.722;2022-10-18T08:57:34;9.50;;;4.32;;
26588;SDS011;14235;48.532;8.722;2022-10-18T09:00:00;6.05;;;4.22;;
26588;SDS011;14235;48.532;8.722;2022-10-18T09:25:19;6.18;;;4.85;;
26588;SDS011;14235;48.532;8.722;2022-10-18T09:28:13;5.47;;;4.70;;
26588;SDS011;14235;48.532;8.722;2022-10-18T09:33:34;6.90;;;4.43;;
26588;SDS011;14235;48.532;8.722;2022-10-18T09:36:08;5.13;;;4.35;;
26588;SDS011;14235;48.532;8.722;2022-10-18T09:38:45;4.57;;;4.18;;
26588;SDS011;14235;48.532;8.722;2022-10-18T09:43:58;6.60;;;5.10;;
26588;SDS011;14235;48.532;8.722;2022-10-18T09:46:40;8.90;;;5.85;;
26588;SDS011;14235;48.532;8.722;2022-10-18T09:49:12;6.88;;;4.43;;
26588;SDS011;14235;48.532;8.722;2022-10-18T09:51:47;5.05;;;3.70;;
26588;SDS011;14235;48.532;8.722;2022-10-18T09:56:49;7.28;;;4.22;;
26588;SDS011;14235;48.532;8.722;2022-10-18T10:01:44;4.85;;;3.47;;
26588;SDS011;14235;48.532;8.722;2022-10-18T10:04:10;5.78;;;3.20;;
26588;SDS011;14235;48.532;8.722;2022-10-18T10:06:36;8.18;;;3.03;;
26588;SDS011;14235;48.532;8.722;2022-10-18T10:09:07;4.70;;;2.50;;
26588;SDS011;14235;48.532;8.722;2022-10-18T10:11:43;2.55;;;2.20;;
26588;SDS011;14235;48.532;8.722;2022-10-18T10:14:16;3.40;;;2.25;;
26588;SDS011;14235;48.532;8.722;2022-10-18T10:16:51;3.75;;;2.65;;
26588;SDS011;14235;48.532;8.722;2022-10-18T10:19:18;4.55;;;2.45;;
26588;SDS011;14235;48.532;8.722;2022-10-18T10:21:49;6.15;;;2.40;;
26588;SDS011;14235;48.532;8.722;2022-10-18T10:24:25;3.63;;;2.58;;
26588;SDS011;14235;48.532;8.722;2022-10-18T10:27:04;4.00;;;2.13;;
26588;SDS011;14235;48.532;8.722;2022-10-18T10:29:48;3.65;;;2.22;;
26588;SDS011;14235;48.532;8.722;2022-10-18T10:32:18;3.95;;;2.58;;
26588;SDS011;14235;48.532;8.722;2022-10-18T10:34:45;4.65;;;1.90;;
26588;SDS011;14235;48.532;8.722;2022-10-18T10:37:30;4.03;;;2.42;;
26588;SDS011;14235;48.532;8.722;2022-10-18T10:40:05;3.30;;;2.05;;
26588;SDS011;14235;48.532;8.722;2022-10-18T10:42:36;5.35;;;2.13;;
26588;SDS011;14235;48.532;8.722;2022-10-18T10:45:02;3.70;;;2.20;;
26588;SDS011;14235;48.532;8.722;2022-10-18T10:47:30;3.65;;;2.05;;
26588;SDS011;14235;48.532;8.722;2022-10-18T10:49:57;4.00;;;2.10;;
26588;SDS011;14235;48.532;8.722;2022-10-18T10:52:23;3.30;;;1.75;;
26588;SDS011;14235;48.532;8.722;2022-10-18T10:54:52;2.47;;;1.50;;
26588;SDS011;14235;48.532;8.722;2022-10-18T10:57:23;4.15;;;1.60;;
26588;SDS011;14235;48.532;8.722;2022-10-18T10:59:55;2.53;;;1.58;;
26588;SDS011;14235;48.532;8.722;2022-10-18T11:02:29;1.42;;;1.33;;
26588;SDS011;14235;48.532;8.722;2022-10-18T11:07:54;1.63;;;1.33;;
26588;SDS011;14235;48.532;8.722;2022-10-18T11:10:24;1.75;;;1.65;;
26588;SDS011;14235;48.532;8.722;2022-10-18T11:15:48;2.03;;;1.50;;
26588;SDS011;14235;48.532;8.722;2022-10-18T11:18:23;2.30;;;1.40;;
26588;SDS011;14235;48.532;8.722;2022-10-18T11:23:31;3.25;;;1.55;;
26588;SDS011;14235;48.532;8.722;2022-10-18T11:39:45;2.08;;;1.25;;
26588;SDS011;14235;48.532;8.722;2022-10-18T11:47:57;2.88;;;1.20;;
26588;SDS011;14235;48.532;8.722;2022-10-18T12:01:42;2.78;;;1.30;;
26588;SDS011;14235;48.532;8.722;2022-10-18T12:04:16;3.03;;;1.58;;
26588;SDS011;14235;48.532;8.722;2022-10-18T12:06:49;2.45;;;1.40;;
26588;SDS011;14235;48.532;8.722;2022-10-18T12:12:24;3.70;;;1.55;;
26588;SDS011;14235;48.532;8.722;2022-10-18T12:14:58;2.10;;;1.40;;
26588;SDS011;14235;48.532;8.722;2022-10-18T12:17:35;2.63;;;1.60;;
26588;SDS011;14235;48.532;8.722;2022-10-18T12:20:17;3.78;;;1.75;;
26588;SDS011;14235;48.532;8.722;2022-10-18T12:22:49;1.60;;;1.50;;
26588;SDS011;14235;48.532;8.722;2022-10-18T12:25:25;1.95;;;1.63;;
26588;SDS011;14235;48.532;8.722;2022-10-18T12:28:06;1.70;;;1.60;;
26588;SDS011;14235;48.532;8.722;2022-10-18T12:33:36;3.08;;;1.63;;
26588;SDS011;14235;48.532;8.722;2022-10-18T12:38:58;2.15;;;1.70;;
26588;SDS011;14235;48.532;8.722;2022-10-18T12:41:30;2.03;;;1.52;;
26588;SDS011;14235;48.532;8.722;2022-10-18T12:49:10;1.60;;;1.50;;
26588;SDS011;14235;48.532;8.722;2022-10-18T12:51:51;1.92;;;1.80;;
26588;SDS011;14235;48.532;8.722;2022-10-18T12:54:22;1.60;;;1.50;;
26588;SDS011;14235;48.532;8.722;2022-10-18T12:56:58;2.08;;;1.75;;
26588;SDS011;14235;48.532;8.722;2022-10-18T13:04:32;1.55;;;1.45;;
26588;SDS011;14235;48.532;8.722;2022-10-18T13:07:19;1.75;;;1.58;;
26588;SDS011;14235;48.532;8.722;2022-10-18T13:12:57;2.85;;;1.73;;
26588;SDS011;14235;48.532;8.722;2022-10-18T13:15:39;3.45;;;1.80;;
26588;SDS011;14235;48.532;8.722;2022-10-18T13:26:42;4.78;;;1.70;;
26588;SDS011;14235;48.532;8.722;2022-10-18T13:29:39;2.20;;;1.40;;
26588;SDS011;14235;48.532;8.722;2022-10-18T13:32:31;2.67;;;1.77;;
26588;SDS011;14235;48.532;8.722;2022-10-18T13:38:30;3.28;;;1.42;;
26588;SDS011;14235;48.532;8.722;2022-10-18T13:41:07;2.08;;;1.63;;
26588;SDS011;14235;48.532;8.722;2022-10-18T13:46:18;2.80;;;1.30;;
26588;SDS011;14235;48.532;8.722;2022-10-18T13:48:45;2.85;;;1.50;;
26588;SDS011;14235;48.532;8.722;2022-10-18T14:08:19;3.88;;;1.73;;
26588;SDS011;14235;48.532;8.722;2022-10-18T14:10:55;3.28;;;1.85;;
26588;SDS011;14235;48.532;8.722;2022-10-18T14:13:38;5.20;;;1.70;;
26588;SDS011;14235;48.532;8.722;2022-10-18T14:16:17;2.95;;;1.70;;
26588;SDS011;14235;48.532;8.722;2022-10-18T14:18:53;4.72;;;1.75;;
26588;SDS011;14235;48.532;8.722;2022-10-18T14:21:27;2.53;;;1.42;;
26588;SDS011;14235;48.532;8.722;2022-10-18T14:23:57;3.53;;;1.42;;
26588;SDS011;14235;48.532;8.722;2022-10-18T14:26:23;3.10;;;1.65;;
26588;SDS011;14235;48.532;8.722;2022-10-18T14:29:02;2.67;;;1.35;;
26588;SDS011;14235;48.532;8.722;2022-10-18T14:31:30;4.57;;;1.90;;
26588;SDS011;14235;48.532;8.722;2022-10-18T14:33:56;5.25;;;1.90;;
26588;SDS011;14235;48.532;8.722;2022-10-18T14:36:23;1.98;;;1.50;;
26588;SDS011;14235;48.532;8.722;2022-10-18T14:38:58;3.63;;;1.63;;
26588;SDS011;14235;48.532;8.722;2022-10-18T14:41:27;4.65;;;1.90;;
26588;SDS011;14235;48.532;8.722;2022-10-18T14:46:45;3.83;;;1.60;;
26588;SDS011;14235;48.532;8.722;2022-10-18T14:49:14;2.80;;;1.55;;
26588;SDS011;14235;48.532;8.722;2022-10-18T14:51:40;2.67;;;1.55;;
26588;SDS011;14235;48.532;8.722;2022-10-18T14:54:15;4.70;;;1.67;;
26588;SDS011;14235;48.532;8.722;2022-10-18T14:56:43;4.47;;;1.65;;
26588;SDS011;14235;48.532;8.722;2022-10-18T14:59:17;3.15;;;1.83;;
26588;SDS011;14235;48.532;8.722;2022-10-18T15:01:51;2.40;;;1.60;;
26588;SDS011;14235;48.532;8.722;2022-10-18T15:04:20;3.42;;;1.80;;
26588;SDS011;14235;48.532;8.722;2022-10-18T15:06:47;3.65;;;1.90;;
26588;SDS011;14235;48.532;8.722;2022-10-18T15:09:13;3.58;;;2.00;;
26588;SDS011;14235;48.532;8.722;2022-10-18T15:11:44;2.38;;;1.60;;
26588;SDS011;14235;48.532;8.722;2022-10-18T15:14:14;2.03;;;1.63;;
26588;SDS011;14235;48.532;8.722;2022-10-18T15:16:42;2.90;;;1.60;;
26588;SDS011;14235;48.532;8.722;2022-10-18T15:21:53;2.22;;;1.40;;
26588;SDS011;14235;48.532;8.722;2022-10-18T15:24:20;7.57;;;2.00;;
26588;SDS011;14235;48.532;8.722;2022-10-18T15:29:46;2.63;;;1.58;;
26588;SDS011;14235;48.532;8.722;2022-10-18T15:32:17;7.97;;;2.00;;
26588;SDS011;14235;48.532;8.722;2022-10-18T15:34:48;4.15;;;1.73;;
26588;SDS011;14235;48.532;8.722;2022-10-18T15:37:15;3.78;;;1.95;;
26588;SDS011;14235;48.532;8.722;2022-10-18T15:39:43;5.88;;;1.98;;
26588;SDS011;14235;48.532;8.722;2022-10-18T15:42:33;3.22;;;1.83;;
26588;SDS011;14235;48.532;8.722;2022-10-18T15:45:01;5.40;;;1.90;;
26588;SDS011;14235;48.532;8.722;2022-10-18T15:51:05;4.30;;;1.98;;
26588;SDS011;14235;48.532;8.722;2022-10-18T16:01:05;2.38;;;1.75;;
26588;SDS011;14235;48.532;8.722;2022-10-18T16:03:42;2.75;;;1.92;;
26588;SDS011;14235;48.532;8.722;2022-10-18T16:06:10;5.85;;;2.20;;
26588;SDS011;14235;48.532;8.722;2022-10-18T16:08:41;6.05;;;2.30;;
26588;SDS011;14235;48.532;8.722;2022-10-18T16:11:15;9.50;;;2.10;;
26588;SDS011;14235;48.532;8.722;2022-10-18T16:13:45;6.13;;;2.15;;
26588;SDS011;14235;48.532;8.722;2022-10-18T16:16:16;4.38;;;1.98;;
26588;SDS011;14235;48.532;8.722;2022-10-18T16:18:44;5.20;;;1.83;;
26588;SDS011;14235;48.532;8.722;2022-10-18T16:21:28;2.83;;;1.80;;
26588;SDS011;14235;48.532;8.722;2022-10-18T16:23:56;7.07;;;2.38;;
26588;SDS011;14235;48.532;8.722;2022-10-18T16:26:22;3.97;;;2.10;;
26588;SDS011;14235;48.532;8.722;2022-10-18T16:28:48;3.22;;;2.10;;
26588;SDS011;14235;48.532;8.722;2022-10-18T16:31:18;3.45;;;2.50;;
26588;SDS011;14235;48.532;8.722;2022-10-18T16:33:46;4.20;;;1.98;;
26588;SDS011;14235;48.532;8.722;2022-10-18T16:36:16;5.15;;;2.15;;
26588;SDS011;14235;48.532;8.722;2022-10-18T16:38:43;5.25;;;1.90;;
26588;SDS011;14235;48.532;8.722;2022-10-18T16:41:09;3.35;;;2.50;;
26588;SDS011;14235;48.532;8.722;2022-10-18T16:43:37;5.88;;;2.33;;
26588;SDS011;14235;48.532;8.722;2022-10-18T16:46:04;6.70;;;2.40;;
26588;SDS011;14235;48.532;8.722;2022-10-18T16:48:30;7.18;;;2.03;;
26588;SDS011;14235;48.532;8.722;2022-10-18T16:50:57;4.40;;;2.13;;
26588;SDS011;14235;48.532;8.722;2022-10-18T16:53:23;3.35;;;2.53;;
26588;SDS011;14235;48.532;8.722;2022-10-18T16:55:54;6.72;;;2.05;;
26588;SDS011;14235;48.532;8.722;2022-10-18T16:58:25;7.47;;;2.33;;
26588;SDS011;14235;48.532;8.722;2022-10-18T17:00:51;3.97;;;2.30;;
26588;SDS011;14235;48.532;8.722;2022-10-18T17:03:17;4.80;;;2.47;;
26588;SDS011;14235;48.532;8.722;2022-10-18T17:05:43;3.65;;;2.33;;
26588;SDS011;14235;48.532;8.722;2022-10-18T17:08:15;5.75;;;2.63;;
26588;SDS011;14235;48.532;8.722;2022-10-18T17:10:58;2.75;;;2.28;;
26588;SDS011;14235;48.532;8.722;2022-10-18T17:13:25;6.07;;;2.83;;
26588;SDS011;14235;48.532;8.722;2022-10-18T17:15:51;4.55;;;2.92;;
26588;SDS011;14235;48.532;8.722;2022-10-18T17:18:18;5.10;;;2.60;;
26588;SDS011;14235;48.532;8.722;2022-10-18T17:20:46;8.13;;;3.20;;
26588;SDS011;14235;48.532;8.722;2022-10-18T17:23:12;6.53;;;3.45;;
26588;SDS011;14235;48.532;8.722;2022-10-18T17:25:38;6.60;;;2.92;;
26588;SDS011;14235;48.532;8.722;2022-10-18T17:28:09;6.70;;;2.70;;
26588;SDS011;14235;48.532;8.722;2022-10-18T17:30:37;6.85;;;2.40;;
26588;SDS011;14235;48.532;8.722;2022-10-18T17:33:03;5.40;;;2.00;;
26588;SDS011;14235;48.532;8.722;2022-10-18T17:35:29;10.88;;;2.90;;
26588;SDS011;14235;48.532;8.722;2022-10-18T17:37:55;6.95;;;4.03;;
26588;SDS011;14235;48.532;8.722;2022-10-18T17:40:20;6.22;;;4.88;;
26588;SDS011;14235;48.532;8.722;2022-10-18T17:42:48;7.38;;;4.97;;